Terminal Aerodrome Forecast
Issued by NWS Grand Forks, ND

Home | Current Version | Previous Version | Text Only | Print | Product List | Glossary Off
Versions: 1 2 3 4 5 6 7 8 9 10 11 12 13 14

000
FTUS43 KFGF 250520
TAFFAR
TAF
KFAR 250520Z 2506/2606 26007KT P6SM FEW250
     FM251200 29010KT P6SM BKN070
     FM251500 31014KT P6SM BKN030
     FM251600 31014KT P6SM BKN045
     FM252200 31011KT P6SM SCT050=

USA.gov is the U.S. government's official web portal to all federal, state and local government web resources and services.